sensor_id;sensor_type;location;lat;lon;timestamp;P1;durP1;ratioP1;P2;durP2;ratioP2
2023;SDS011;1016;48.770;9.154;2023-09-18T00:01:49;28.70;;;3.33;;
2023;SDS011;1016;48.770;9.154;2023-09-18T00:04:14;27.70;;;3.17;;
2023;SDS011;1016;48.770;9.154;2023-09-18T00:06:41;29.63;;;3.80;;
2023;SDS011;1016;48.770;9.154;2023-09-18T00:09:07;28.93;;;3.20;;
2023;SDS011;1016;48.770;9.154;2023-09-18T00:11:36;27.60;;;3.03;;
2023;SDS011;1016;48.770;9.154;2023-09-18T00:14:03;28.57;;;3.43;;
2023;SDS011;1016;48.770;9.154;2023-09-18T00:16:28;29.07;;;3.80;;
2023;SDS011;1016;48.770;9.154;2023-09-18T00:18:54;28.27;;;3.30;;
2023;SDS011;1016;48.770;9.154;2023-09-18T00:21:19;30.27;;;3.33;;
2023;SDS011;1016;48.770;9.154;2023-09-18T00:23:45;28.57;;;3.20;;
2023;SDS011;1016;48.770;9.154;2023-09-18T00:26:11;27.70;;;3.10;;
2023;SDS011;1016;48.770;9.154;2023-09-18T00:28:37;27.87;;;3.33;;
2023;SDS011;1016;48.770;9.154;2023-09-18T00:31:03;28.50;;;3.10;;
2023;SDS011;1016;48.770;9.154;2023-09-18T00:33:29;28.93;;;3.57;;
2023;SDS011;1016;48.770;9.154;2023-09-18T00:35:54;28.00;;;3.27;;
2023;SDS011;1016;48.770;9.154;2023-09-18T00:38:20;27.97;;;2.97;;
2023;SDS011;1016;48.770;9.154;2023-09-18T00:40:46;28.30;;;3.40;;
2023;SDS011;1016;48.770;9.154;2023-09-18T00:43:11;28.10;;;3.10;;
2023;SDS011;1016;48.770;9.154;2023-09-18T00:45:41;28.27;;;2.83;;
2023;SDS011;1016;48.770;9.154;2023-09-18T00:48:09;28.13;;;3.40;;
2023;SDS011;1016;48.770;9.154;2023-09-18T00:50:36;28.40;;;3.33;;
2023;SDS011;1016;48.770;9.154;2023-09-18T00:53:02;29.83;;;3.20;;
2023;SDS011;1016;48.770;9.154;2023-09-18T00:55:28;28.47;;;3.73;;
2023;SDS011;1016;48.770;9.154;2023-09-18T00:57:57;27.83;;;3.30;;
2023;SDS011;1016;48.770;9.154;2023-09-18T01:00:23;27.60;;;3.20;;
2023;SDS011;1016;48.770;9.154;2023-09-18T01:02:48;29.10;;;3.00;;
2023;SDS011;1016;48.770;9.154;2023-09-18T01:05:14;27.80;;;2.90;;
2023;SDS011;1016;48.770;9.154;2023-09-18T01:07:42;27.57;;;3.17;;
2023;SDS011;1016;48.770;9.154;2023-09-18T01:10:07;28.10;;;2.97;;
2023;SDS011;1016;48.770;9.154;2023-09-18T01:12:40;29.00;;;3.50;;
2023;SDS011;1016;48.770;9.154;2023-09-18T01:17:38;30.20;;;3.23;;
2023;SDS011;1016;48.770;9.154;2023-09-18T01:20:05;27.90;;;3.03;;
2023;SDS011;1016;48.770;9.154;2023-09-18T01:22:33;29.93;;;3.20;;
2023;SDS011;1016;48.770;9.154;2023-09-18T01:24:59;29.10;;;3.47;;
2023;SDS011;1016;48.770;9.154;2023-09-18T01:27:24;28.80;;;3.20;;
2023;SDS011;1016;48.770;9.154;2023-09-18T01:29:50;29.93;;;3.80;;
2023;SDS011;1016;48.770;9.154;2023-09-18T01:32:16;29.07;;;3.07;;
2023;SDS011;1016;48.770;9.154;2023-09-18T01:34:46;28.20;;;3.17;;
2023;SDS011;1016;48.770;9.154;2023-09-18T01:37:14;29.20;;;3.30;;
2023;SDS011;1016;48.770;9.154;2023-09-18T01:39:42;28.67;;;3.50;;
2023;SDS011;1016;48.770;9.154;2023-09-18T01:42:10;28.10;;;3.20;;
2023;SDS011;1016;48.770;9.154;2023-09-18T01:44:36;28.47;;;3.33;;
2023;SDS011;1016;48.770;9.154;2023-09-18T01:47:08;28.17;;;3.10;;
2023;SDS011;1016;48.770;9.154;2023-09-18T01:49:37;27.80;;;2.90;;
2023;SDS011;1016;48.770;9.154;2023-09-18T01:52:04;28.60;;;3.10;;
2023;SDS011;1016;48.770;9.154;2023-09-18T01:54:31;29.67;;;3.27;;
2023;SDS011;1016;48.770;9.154;2023-09-18T01:56:58;29.57;;;2.80;;
2023;SDS011;1016;48.770;9.154;2023-09-18T01:59:23;31.17;;;3.00;;
2023;SDS011;1016;48.770;9.154;2023-09-18T02:01:50;29.77;;;2.77;;
2023;SDS011;1016;48.770;9.154;2023-09-18T02:04:17;32.30;;;3.30;;
2023;SDS011;1016;48.770;9.154;2023-09-18T02:06:43;29.20;;;3.03;;
2023;SDS011;1016;48.770;9.154;2023-09-18T02:09:09;30.20;;;3.00;;
2023;SDS011;1016;48.770;9.154;2023-09-18T02:11:39;30.67;;;3.03;;
2023;SDS011;1016;48.770;9.154;2023-09-18T02:14:06;29.57;;;2.70;;
2023;SDS011;1016;48.770;9.154;2023-09-18T02:16:33;31.97;;;3.40;;
2023;SDS011;1016;48.770;9.154;2023-09-18T02:19:00;33.13;;;3.47;;
2023;SDS011;1016;48.770;9.154;2023-09-18T02:21:25;32.97;;;3.00;;
2023;SDS011;1016;48.770;9.154;2023-09-18T02:23:51;35.00;;;3.70;;
2023;SDS011;1016;48.770;9.154;2023-09-18T02:26:18;29.90;;;2.70;;
2023;SDS011;1016;48.770;9.154;2023-09-18T02:28:44;30.23;;;3.00;;
2023;SDS011;1016;48.770;9.154;2023-09-18T02:31:10;31.37;;;2.90;;
2023;SDS011;1016;48.770;9.154;2023-09-18T02:33:36;32.80;;;2.80;;
2023;SDS011;1016;48.770;9.154;2023-09-18T02:36:02;32.37;;;2.67;;
2023;SDS011;1016;48.770;9.154;2023-09-18T02:38:28;30.80;;;2.87;;
2023;SDS011;1016;48.770;9.154;2023-09-18T02:40:55;31.73;;;3.00;;
2023;SDS011;1016;48.770;9.154;2023-09-18T02:43:21;29.30;;;2.33;;
2023;SDS011;1016;48.770;9.154;2023-09-18T02:45:47;30.33;;;2.63;;
2023;SDS011;1016;48.770;9.154;2023-09-18T02:48:13;30.50;;;3.00;;
2023;SDS011;1016;48.770;9.154;2023-09-18T02:50:39;34.83;;;3.70;;
2023;SDS011;1016;48.770;9.154;2023-09-18T02:53:05;31.80;;;3.10;;
2023;SDS011;1016;48.770;9.154;2023-09-18T02:55:31;33.70;;;3.40;;
2023;SDS011;1016;48.770;9.154;2023-09-18T02:57:57;33.30;;;3.20;;
2023;SDS011;1016;48.770;9.154;2023-09-18T03:00:24;37.27;;;3.63;;
2023;SDS011;1016;48.770;9.154;2023-09-18T03:02:49;34.00;;;3.40;;
2023;SDS011;1016;48.770;9.154;2023-09-18T03:05:15;32.50;;;3.00;;
2023;SDS011;1016;48.770;9.154;2023-09-18T03:07:40;30.17;;;2.90;;
2023;SDS011;1016;48.770;9.154;2023-09-18T03:10:06;31.00;;;3.13;;
2023;SDS011;1016;48.770;9.154;2023-09-18T03:12:32;30.90;;;3.00;;
2023;SDS011;1016;48.770;9.154;2023-09-18T03:14:58;32.37;;;2.97;;
2023;SDS011;1016;48.770;9.154;2023-09-18T03:17:24;32.27;;;2.50;;
2023;SDS011;1016;48.770;9.154;2023-09-18T03:19:49;34.73;;;2.37;;
2023;SDS011;1016;48.770;9.154;2023-09-18T03:22:15;29.90;;;2.77;;
2023;SDS011;1016;48.770;9.154;2023-09-18T03:24:41;31.40;;;2.30;;
2023;SDS011;1016;48.770;9.154;2023-09-18T03:27:06;34.20;;;3.03;;
2023;SDS011;1016;48.770;9.154;2023-09-18T03:29:32;31.30;;;2.80;;
2023;SDS011;1016;48.770;9.154;2023-09-18T03:31:57;31.77;;;2.80;;
2023;SDS011;1016;48.770;9.154;2023-09-18T03:34:24;32.27;;;3.30;;
2023;SDS011;1016;48.770;9.154;2023-09-18T03:36:53;32.17;;;2.80;;
2023;SDS011;1016;48.770;9.154;2023-09-18T03:39:18;33.03;;;2.90;;
2023;SDS011;1016;48.770;9.154;2023-09-18T03:41:45;31.67;;;3.20;;
2023;SDS011;1016;48.770;9.154;2023-09-18T03:44:10;33.90;;;3.23;;
2023;SDS011;1016;48.770;9.154;2023-09-18T03:46:36;30.30;;;2.83;;
2023;SDS011;1016;48.770;9.154;2023-09-18T03:49:02;29.77;;;3.10;;
2023;SDS011;1016;48.770;9.154;2023-09-18T03:51:28;32.47;;;3.10;;
2023;SDS011;1016;48.770;9.154;2023-09-18T03:53:54;30.87;;;3.03;;
2023;SDS011;1016;48.770;9.154;2023-09-18T03:56:20;30.17;;;2.80;;
2023;SDS011;1016;48.770;9.154;2023-09-18T03:58:47;33.63;;;2.80;;
2023;SDS011;1016;48.770;9.154;2023-09-18T04:01:14;33.07;;;2.90;;
2023;SDS011;1016;48.770;9.154;2023-09-18T04:03:40;32.07;;;3.03;;
2023;SDS011;1016;48.770;9.154;2023-09-18T04:06:06;31.60;;;2.83;;
2023;SDS011;1016;48.770;9.154;2023-09-18T04:08:32;32.60;;;2.80;;
2023;SDS011;1016;48.770;9.154;2023-09-18T04:10:57;30.50;;;2.97;;
2023;SDS011;1016;48.770;9.154;2023-09-18T04:13:23;33.20;;;2.80;;
2023;SDS011;1016;48.770;9.154;2023-09-18T04:15:49;31.90;;;2.77;;
2023;SDS011;1016;48.770;9.154;2023-09-18T04:18:15;32.07;;;3.13;;
2023;SDS011;1016;48.770;9.154;2023-09-18T04:20:40;30.70;;;2.33;;
2023;SDS011;1016;48.770;9.154;2023-09-18T04:23:25;30.07;;;2.80;;
2023;SDS011;1016;48.770;9.154;2023-09-18T04:25:52;30.60;;;2.80;;
2023;SDS011;1016;48.770;9.154;2023-09-18T04:28:19;33.57;;;3.20;;
2023;SDS011;1016;48.770;9.154;2023-09-18T04:30:47;33.73;;;3.43;;
2023;SDS011;1016;48.770;9.154;2023-09-18T04:33:16;32.00;;;3.23;;
2023;SDS011;1016;48.770;9.154;2023-09-18T04:35:42;31.60;;;3.10;;
2023;SDS011;1016;48.770;9.154;2023-09-18T04:38:08;31.77;;;3.10;;
2023;SDS011;1016;48.770;9.154;2023-09-18T04:40:35;31.53;;;2.67;;
2023;SDS011;1016;48.770;9.154;2023-09-18T04:43:01;30.00;;;2.70;;
2023;SDS011;1016;48.770;9.154;2023-09-18T04:45:30;29.63;;;3.00;;
2023;SDS011;1016;48.770;9.154;2023-09-18T04:47:56;31.00;;;3.00;;
2023;SDS011;1016;48.770;9.154;2023-09-18T04:50:22;32.80;;;3.47;;
2023;SDS011;1016;48.770;9.154;2023-09-18T04:52:48;28.93;;;3.10;;
2023;SDS011;1016;48.770;9.154;2023-09-18T04:55:15;35.97;;;3.17;;
2023;SDS011;1016;48.770;9.154;2023-09-18T04:57:41;31.27;;;3.03;;
2023;SDS011;1016;48.770;9.154;2023-09-18T05:00:08;32.20;;;3.17;;
2023;SDS011;1016;48.770;9.154;2023-09-18T05:02:37;31.83;;;2.93;;
2023;SDS011;1016;48.770;9.154;2023-09-18T05:05:03;29.93;;;2.83;;
2023;SDS011;1016;48.770;9.154;2023-09-18T05:07:29;31.77;;;3.27;;
2023;SDS011;1016;48.770;9.154;2023-09-18T05:09:55;31.90;;;3.30;;
2023;SDS011;1016;48.770;9.154;2023-09-18T05:12:21;32.70;;;3.30;;
2023;SDS011;1016;48.770;9.154;2023-09-18T05:14:47;28.87;;;3.00;;
2023;SDS011;1016;48.770;9.154;2023-09-18T05:17:14;30.17;;;2.50;;
2023;SDS011;1016;48.770;9.154;2023-09-18T05:19:42;29.57;;;3.30;;
2023;SDS011;1016;48.770;9.154;2023-09-18T05:22:08;32.93;;;3.13;;
2023;SDS011;1016;48.770;9.154;2023-09-18T05:24:37;32.87;;;2.83;;
2023;SDS011;1016;48.770;9.154;2023-09-18T05:27:04;31.80;;;3.30;;
2023;SDS011;1016;48.770;9.154;2023-09-18T05:29:34;31.87;;;3.60;;
2023;SDS011;1016;48.770;9.154;2023-09-18T05:32:02;31.63;;;3.30;;
2023;SDS011;1016;48.770;9.154;2023-09-18T05:34:29;33.03;;;3.00;;
2023;SDS011;1016;48.770;9.154;2023-09-18T05:36:54;30.30;;;3.10;;
2023;SDS011;1016;48.770;9.154;2023-09-18T05:39:20;30.73;;;3.43;;
2023;SDS011;1016;48.770;9.154;2023-09-18T05:41:45;31.57;;;3.30;;
2023;SDS011;1016;48.770;9.154;2023-09-18T05:44:11;30.80;;;2.80;;
2023;SDS011;1016;48.770;9.154;2023-09-18T05:46:37;31.90;;;2.77;;
2023;SDS011;1016;48.770;9.154;2023-09-18T05:49:03;30.83;;;3.67;;
2023;SDS011;1016;48.770;9.154;2023-09-18T05:51:29;31.40;;;3.10;;
2023;SDS011;1016;48.770;9.154;2023-09-18T05:53:56;35.00;;;2.60;;
2023;SDS011;1016;48.770;9.154;2023-09-18T05:56:21;31.30;;;2.87;;
2023;SDS011;1016;48.770;9.154;2023-09-18T05:58:48;31.23;;;2.70;;
2023;SDS011;1016;48.770;9.154;2023-09-18T06:01:14;30.00;;;2.80;;
2023;SDS011;1016;48.770;9.154;2023-09-18T06:03:40;33.80;;;3.27;;
2023;SDS011;1016;48.770;9.154;2023-09-18T06:06:05;34.80;;;2.87;;
2023;SDS011;1016;48.770;9.154;2023-09-18T06:08:31;32.83;;;3.10;;
2023;SDS011;1016;48.770;9.154;2023-09-18T06:10:58;30.83;;;2.80;;
2023;SDS011;1016;48.770;9.154;2023-09-18T06:13:24;29.07;;;2.47;;
2023;SDS011;1016;48.770;9.154;2023-09-18T06:15:50;31.93;;;3.23;;
2023;SDS011;1016;48.770;9.154;2023-09-18T06:18:21;31.83;;;3.30;;
2023;SDS011;1016;48.770;9.154;2023-09-18T06:20:48;36.53;;;3.43;;
2023;SDS011;1016;48.770;9.154;2023-09-18T06:26:46;29.50;;;3.20;;
2023;SDS011;1016;48.770;9.154;2023-09-18T06:29:12;31.80;;;3.00;;
2023;SDS011;1016;48.770;9.154;2023-09-18T06:31:38;32.03;;;3.43;;
2023;SDS011;1016;48.770;9.154;2023-09-18T06:34:04;31.30;;;3.63;;
2023;SDS011;1016;48.770;9.154;2023-09-18T06:36:30;32.50;;;2.90;;
2023;SDS011;1016;48.770;9.154;2023-09-18T06:38:55;31.20;;;3.20;;
2023;SDS011;1016;48.770;9.154;2023-09-18T06:41:21;32.77;;;3.77;;
2023;SDS011;1016;48.770;9.154;2023-09-18T06:43:46;32.17;;;3.60;;
2023;SDS011;1016;48.770;9.154;2023-09-18T06:46:12;33.20;;;3.43;;
2023;SDS011;1016;48.770;9.154;2023-09-18T06:54:44;29.83;;;3.17;;
2023;SDS011;1016;48.770;9.154;2023-09-18T06:57:10;32.70;;;3.10;;
2023;SDS011;1016;48.770;9.154;2023-09-18T06:59:36;30.30;;;3.07;;
2023;SDS011;1016;48.770;9.154;2023-09-18T07:02:02;30.73;;;3.17;;
2023;SDS011;1016;48.770;9.154;2023-09-18T07:04:29;28.50;;;2.80;;
2023;SDS011;1016;48.770;9.154;2023-09-18T07:06:54;28.27;;;3.17;;
2023;SDS011;1016;48.770;9.154;2023-09-18T07:09:21;29.87;;;2.90;;
2023;SDS011;1016;48.770;9.154;2023-09-18T07:11:50;28.00;;;2.70;;
2023;SDS011;1016;48.770;9.154;2023-09-18T07:14:16;28.43;;;2.57;;
2023;SDS011;1016;48.770;9.154;2023-09-18T07:16:42;29.97;;;2.47;;
2023;SDS011;1016;48.770;9.154;2023-09-18T07:19:09;28.33;;;2.70;;
2023;SDS011;1016;48.770;9.154;2023-09-18T07:21:37;29.00;;;2.20;;
2023;SDS011;1016;48.770;9.154;2023-09-18T07:24:03;28.67;;;2.10;;
2023;SDS011;1016;48.770;9.154;2023-09-18T07:26:29;28.57;;;2.40;;
2023;SDS011;1016;48.770;9.154;2023-09-18T07:28:55;27.97;;;1.77;;
2023;SDS011;1016;48.770;9.154;2023-09-18T07:31:24;27.27;;;1.80;;
2023;SDS011;1016;48.770;9.154;2023-09-18T07:33:50;29.80;;;2.50;;
2023;SDS011;1016;48.770;9.154;2023-09-18T07:36:18;27.97;;;2.23;;
2023;SDS011;1016;48.770;9.154;2023-09-18T07:38:45;29.93;;;2.07;;
2023;SDS011;1016;48.770;9.154;2023-09-18T07:41:10;27.50;;;1.80;;
2023;SDS011;1016;48.770;9.154;2023-09-18T07:43:36;28.70;;;1.97;;
2023;SDS011;1016;48.770;9.154;2023-09-18T07:46:04;29.97;;;2.07;;
2023;SDS011;1016;48.770;9.154;2023-09-18T07:48:29;28.37;;;2.50;;
2023;SDS011;1016;48.770;9.154;2023-09-18T07:50:55;30.27;;;2.00;;
2023;SDS011;1016;48.770;9.154;2023-09-18T07:53:21;27.77;;;1.90;;
2023;SDS011;1016;48.770;9.154;2023-09-18T07:55:48;27.57;;;1.70;;
2023;SDS011;1016;48.770;9.154;2023-09-18T07:58:21;30.07;;;2.17;;
2023;SDS011;1016;48.770;9.154;2023-09-18T08:00:52;27.43;;;1.83;;
2023;SDS011;1016;48.770;9.154;2023-09-18T08:03:22;28.00;;;2.67;;
2023;SDS011;1016;48.770;9.154;2023-09-18T08:05:52;27.20;;;1.70;;
2023;SDS011;1016;48.770;9.154;2023-09-18T08:08:18;29.63;;;1.93;;
2023;SDS011;1016;48.770;9.154;2023-09-18T08:10:45;30.03;;;1.90;;
2023;SDS011;1016;48.770;9.154;2023-09-18T08:13:15;26.73;;;1.60;;
2023;SDS011;1016;48.770;9.154;2023-09-18T08:15:41;28.87;;;2.00;;
2023;SDS011;1016;48.770;9.154;2023-09-18T08:18:07;30.27;;;2.40;;
2023;SDS011;1016;48.770;9.154;2023-09-18T08:20:32;27.50;;;1.37;;
2023;SDS011;1016;48.770;9.154;2023-09-18T08:22:58;28.47;;;2.00;;
2023;SDS011;1016;48.770;9.154;2023-09-18T08:25:28;27.90;;;1.80;;
2023;SDS011;1016;48.770;9.154;2023-09-18T08:27:54;28.63;;;1.90;;
2023;SDS011;1016;48.770;9.154;2023-09-18T08:30:20;29.57;;;1.70;;
2023;SDS011;1016;48.770;9.154;2023-09-18T08:32:49;27.80;;;1.93;;
2023;SDS011;1016;48.770;9.154;2023-09-18T08:35:15;27.13;;;1.73;;
2023;SDS011;1016;48.770;9.154;2023-09-18T08:37:41;27.50;;;1.90;;
2023;SDS011;1016;48.770;9.154;2023-09-18T08:40:07;28.10;;;1.80;;
2023;SDS011;1016;48.770;9.154;2023-09-18T08:46:00;26.50;;;1.60;;
2023;SDS011;1016;48.770;9.154;2023-09-18T08:48:28;30.93;;;1.50;;
2023;SDS011;1016;48.770;9.154;2023-09-18T08:51:00;27.70;;;1.80;;
2023;SDS011;1016;48.770;9.154;2023-09-18T08:53:33;27.87;;;1.83;;
2023;SDS011;1016;48.770;9.154;2023-09-18T08:56:00;28.57;;;2.07;;
2023;SDS011;1016;48.770;9.154;2023-09-18T08:58:27;28.80;;;1.73;;
2023;SDS011;1016;48.770;9.154;2023-09-18T09:00:56;27.50;;;1.67;;
2023;SDS011;1016;48.770;9.154;2023-09-18T09:03:22;27.13;;;1.50;;
2023;SDS011;1016;48.770;9.154;2023-09-18T09:05:49;27.97;;;1.47;;
2023;SDS011;1016;48.770;9.154;2023-09-18T09:08:16;27.70;;;1.77;;
2023;SDS011;1016;48.770;9.154;2023-09-18T09:10:41;28.13;;;1.60;;
2023;SDS011;1016;48.770;9.154;2023-09-18T09:13:07;28.00;;;1.83;;
2023;SDS011;1016;48.770;9.154;2023-09-18T09:15:45;26.97;;;1.80;;
2023;SDS011;1016;48.770;9.154;2023-09-18T09:18:29;27.50;;;1.50;;
2023;SDS011;1016;48.770;9.154;2023-09-18T09:20:57;28.73;;;1.83;;
2023;SDS011;1016;48.770;9.154;2023-09-18T09:26:14;27.73;;;2.00;;
2023;SDS011;1016;48.770;9.154;2023-09-18T09:28:42;28.03;;;1.70;;
2023;SDS011;1016;48.770;9.154;2023-09-18T09:31:08;26.87;;;2.10;;
2023;SDS011;1016;48.770;9.154;2023-09-18T09:36:57;27.33;;;2.10;;
2023;SDS011;1016;48.770;9.154;2023-09-18T09:39:26;28.23;;;2.00;;
2023;SDS011;1016;48.770;9.154;2023-09-18T09:41:52;26.90;;;1.70;;
2023;SDS011;1016;48.770;9.154;2023-09-18T09:44:18;28.70;;;1.97;;
2023;SDS011;1016;48.770;9.154;2023-09-18T09:46:46;27.30;;;2.20;;
2023;SDS011;1016;48.770;9.154;2023-09-18T09:49:13;27.30;;;2.10;;
2023;SDS011;1016;48.770;9.154;2023-09-18T09:51:40;26.80;;;1.97;;
2023;SDS011;1016;48.770;9.154;2023-09-18T09:54:10;26.93;;;1.90;;
2023;SDS011;1016;48.770;9.154;2023-09-18T09:56:48;27.47;;;2.23;;
2023;SDS011;1016;48.770;9.154;2023-09-18T09:59:17;27.70;;;2.43;;
2023;SDS011;1016;48.770;9.154;2023-09-18T10:01:47;27.30;;;2.00;;
2023;SDS011;1016;48.770;9.154;2023-09-18T10:04:15;27.57;;;2.00;;
2023;SDS011;1016;48.770;9.154;2023-09-18T10:06:56;26.70;;;2.20;;
2023;SDS011;1016;48.770;9.154;2023-09-18T10:09:30;27.40;;;2.00;;
2023;SDS011;1016;48.770;9.154;2023-09-18T10:12:00;27.07;;;1.97;;
2023;SDS011;1016;48.770;9.154;2023-09-18T10:14:30;28.77;;;2.20;;
2023;SDS011;1016;48.770;9.154;2023-09-18T10:17:12;28.20;;;2.03;;
2023;SDS011;1016;48.770;9.154;2023-09-18T10:19:45;28.50;;;1.90;;
2023;SDS011;1016;48.770;9.154;2023-09-18T10:22:40;27.80;;;2.70;;
2023;SDS011;1016;48.770;9.154;2023-09-18T10:25:18;29.33;;;2.67;;
2023;SDS011;1016;48.770;9.154;2023-09-18T10:27:50;27.70;;;2.27;;
2023;SDS011;1016;48.770;9.154;2023-09-18T10:30:23;27.30;;;2.43;;
2023;SDS011;1016;48.770;9.154;2023-09-18T10:32:53;28.30;;;2.30;;
2023;SDS011;1016;48.770;9.154;2023-09-18T10:35:19;26.70;;;2.00;;
2023;SDS011;1016;48.770;9.154;2023-09-18T10:37:53;28.57;;;2.20;;
2023;SDS011;1016;48.770;9.154;2023-09-18T10:40:20;29.13;;;2.80;;
2023;SDS011;1016;48.770;9.154;2023-09-18T10:42:46;28.33;;;2.27;;
2023;SDS011;1016;48.770;9.154;2023-09-18T10:45:15;28.80;;;2.37;;
2023;SDS011;1016;48.770;9.154;2023-09-18T10:47:42;28.50;;;2.40;;
2023;SDS011;1016;48.770;9.154;2023-09-18T10:50:22;29.00;;;2.63;;
2023;SDS011;1016;48.770;9.154;2023-09-18T10:52:50;27.47;;;2.20;;
2023;SDS011;1016;48.770;9.154;2023-09-18T10:55:18;26.47;;;2.10;;
2023;SDS011;1016;48.770;9.154;2023-09-18T10:57:54;27.70;;;2.00;;
2023;SDS011;1016;48.770;9.154;2023-09-18T11:00:24;31.23;;;2.27;;
2023;SDS011;1016;48.770;9.154;2023-09-18T11:05:48;26.67;;;1.90;;
2023;SDS011;1016;48.770;9.154;2023-09-18T11:08:32;28.67;;;2.33;;
2023;SDS011;1016;48.770;9.154;2023-09-18T11:11:05;26.67;;;2.10;;
2023;SDS011;1016;48.770;9.154;2023-09-18T11:13:46;27.67;;;2.30;;
2023;SDS011;1016;48.770;9.154;2023-09-18T11:16:38;28.10;;;1.83;;
2023;SDS011;1016;48.770;9.154;2023-09-18T11:19:05;29.70;;;1.90;;
2023;SDS011;1016;48.770;9.154;2023-09-18T11:21:36;26.60;;;1.83;;
2023;SDS011;1016;48.770;9.154;2023-09-18T11:24:02;30.60;;;2.00;;
2023;SDS011;1016;48.770;9.154;2023-09-18T11:26:36;28.50;;;1.97;;
2023;SDS011;1016;48.770;9.154;2023-09-18T11:29:06;28.60;;;2.10;;
2023;SDS011;1016;48.770;9.154;2023-09-18T11:34:20;27.50;;;1.93;;
2023;SDS011;1016;48.770;9.154;2023-09-18T11:36:47;29.80;;;2.30;;
2023;SDS011;1016;48.770;9.154;2023-09-18T11:39:35;27.10;;;2.30;;
2023;SDS011;1016;48.770;9.154;2023-09-18T11:42:20;30.90;;;2.20;;
2023;SDS011;1016;48.770;9.154;2023-09-18T11:44:51;27.90;;;1.93;;
2023;SDS011;1016;48.770;9.154;2023-09-18T11:47:19;26.20;;;2.10;;
2023;SDS011;1016;48.770;9.154;2023-09-18T11:49:52;26.90;;;2.10;;
2023;SDS011;1016;48.770;9.154;2023-09-18T11:52:25;27.43;;;1.80;;
2023;SDS011;1016;48.770;9.154;2023-09-18T11:54:55;27.30;;;2.30;;
2023;SDS011;1016;48.770;9.154;2023-09-18T11:57:23;26.07;;;1.80;;
2023;SDS011;1016;48.770;9.154;2023-09-18T11:59:49;27.33;;;1.87;;
2023;SDS011;1016;48.770;9.154;2023-09-18T12:02:25;28.00;;;2.00;;
2023;SDS011;1016;48.770;9.154;2023-09-18T12:05:13;26.50;;;1.77;;
2023;SDS011;1016;48.770;9.154;2023-09-18T12:07:40;27.33;;;2.37;;
2023;SDS011;1016;48.770;9.154;2023-09-18T12:10:14;27.80;;;2.40;;
2023;SDS011;1016;48.770;9.154;2023-09-18T12:12:42;27.57;;;2.13;;
2023;SDS011;1016;48.770;9.154;2023-09-18T12:15:17;27.47;;;2.33;;
2023;SDS011;1016;48.770;9.154;2023-09-18T12:17:46;26.67;;;1.93;;
2023;SDS011;1016;48.770;9.154;2023-09-18T12:20:16;26.77;;;1.90;;
2023;SDS011;1016;48.770;9.154;2023-09-18T12:22:49;26.13;;;1.50;;
2023;SDS011;1016;48.770;9.154;2023-09-18T12:25:15;26.33;;;1.60;;
2023;SDS011;1016;48.770;9.154;2023-09-18T12:27:45;26.17;;;1.53;;
2023;SDS011;1016;48.770;9.154;2023-09-18T12:30:11;26.47;;;1.73;;
2023;SDS011;1016;48.770;9.154;2023-09-18T12:32:49;26.40;;;1.73;;
2023;SDS011;1016;48.770;9.154;2023-09-18T12:35:18;27.00;;;1.90;;
2023;SDS011;1016;48.770;9.154;2023-09-18T12:37:44;26.47;;;1.90;;
2023;SDS011;1016;48.770;9.154;2023-09-18T12:40:23;26.60;;;2.17;;
2023;SDS011;1016;48.770;9.154;2023-09-18T12:42:53;29.00;;;1.97;;
2023;SDS011;1016;48.770;9.154;2023-09-18T12:45:26;26.40;;;1.93;;
2023;SDS011;1016;48.770;9.154;2023-09-18T12:47:54;26.43;;;2.07;;
2023;SDS011;1016;48.770;9.154;2023-09-18T12:50:21;27.33;;;1.90;;
2023;SDS011;1016;48.770;9.154;2023-09-18T12:52:46;26.80;;;1.90;;
2023;SDS011;1016;48.770;9.154;2023-09-18T12:55:20;27.53;;;2.23;;
2023;SDS011;1016;48.770;9.154;2023-09-18T12:57:51;27.50;;;2.30;;
2023;SDS011;1016;48.770;9.154;2023-09-18T13:00:20;27.40;;;2.10;;
2023;SDS011;1016;48.770;9.154;2023-09-18T13:02:51;26.63;;;1.73;;
2023;SDS011;1016;48.770;9.154;2023-09-18T13:05:25;27.30;;;2.00;;
2023;SDS011;1016;48.770;9.154;2023-09-18T13:07:55;26.23;;;1.80;;
2023;SDS011;1016;48.770;9.154;2023-09-18T13:10:43;28.23;;;2.27;;
2023;SDS011;1016;48.770;9.154;2023-09-18T13:13:18;27.23;;;1.97;;
2023;SDS011;1016;48.770;9.154;2023-09-18T13:15:46;26.37;;;1.93;;
2023;SDS011;1016;48.770;9.154;2023-09-18T13:18:14;26.83;;;2.07;;
2023;SDS011;1016;48.770;9.154;2023-09-18T13:20:41;26.60;;;1.97;;
2023;SDS011;1016;48.770;9.154;2023-09-18T13:23:08;26.93;;;2.20;;
2023;SDS011;1016;48.770;9.154;2023-09-18T13:25:38;27.17;;;1.90;;
2023;SDS011;1016;48.770;9.154;2023-09-18T13:28:09;26.40;;;2.00;;
2023;SDS011;1016;48.770;9.154;2023-09-18T13:30:36;27.60;;;2.10;;
2023;SDS011;1016;48.770;9.154;2023-09-18T13:33:16;26.60;;;1.60;;
2023;SDS011;1016;48.770;9.154;2023-09-18T13:35:45;26.57;;;1.57;;
2023;SDS011;1016;48.770;9.154;2023-09-18T13:38:14;27.20;;;1.90;;
2023;SDS011;1016;48.770;9.154;2023-09-18T13:40:42;28.13;;;2.13;;
2023;SDS011;1016;48.770;9.154;2023-09-18T13:43:13;27.10;;;1.83;;
2023;SDS011;1016;48.770;9.154;2023-09-18T13:45:49;26.90;;;1.40;;
2023;SDS011;1016;48.770;9.154;2023-09-18T13:48:18;26.80;;;2.00;;
2023;SDS011;1016;48.770;9.154;2023-09-18T13:50:44;26.97;;;1.93;;
2023;SDS011;1016;48.770;9.154;2023-09-18T13:53:17;28.13;;;2.33;;
2023;SDS011;1016;48.770;9.154;2023-09-18T13:55:43;29.47;;;1.77;;
2023;SDS011;1016;48.770;9.154;2023-09-18T13:58:09;28.03;;;1.77;;
2023;SDS011;1016;48.770;9.154;2023-09-18T14:00:39;27.50;;;2.20;;
2023;SDS011;1016;48.770;9.154;2023-09-18T14:03:05;29.10;;;2.10;;
2023;SDS011;1016;48.770;9.154;2023-09-18T14:05:33;26.37;;;1.67;;
2023;SDS011;1016;48.770;9.154;2023-09-18T14:08:02;26.43;;;1.97;;
2023;SDS011;1016;48.770;9.154;2023-09-18T14:10:32;27.13;;;1.80;;
2023;SDS011;1016;48.770;9.154;2023-09-18T14:13:07;27.30;;;2.40;;
2023;SDS011;1016;48.770;9.154;2023-09-18T14:15:33;26.60;;;1.83;;
2023;SDS011;1016;48.770;9.154;2023-09-18T14:18:04;27.17;;;1.90;;
2023;SDS011;1016;48.770;9.154;2023-09-18T14:20:32;27.90;;;1.83;;
2023;SDS011;1016;48.770;9.154;2023-09-18T14:23:00;27.57;;;2.03;;
2023;SDS011;1016;48.770;9.154;2023-09-18T14:25:28;26.67;;;1.50;;
2023;SDS011;1016;48.770;9.154;2023-09-18T14:27:59;27.37;;;2.10;;
2023;SDS011;1016;48.770;9.154;2023-09-18T14:30:35;26.80;;;1.63;;
2023;SDS011;1016;48.770;9.154;2023-09-18T14:33:03;26.53;;;1.60;;
2023;SDS011;1016;48.770;9.154;2023-09-18T14:35:58;28.30;;;1.70;;
2023;SDS011;1016;48.770;9.154;2023-09-18T14:38:24;27.10;;;2.03;;
2023;SDS011;1016;48.770;9.154;2023-09-18T14:40:56;28.07;;;2.27;;
2023;SDS011;1016;48.770;9.154;2023-09-18T14:43:38;27.20;;;1.80;;
2023;SDS011;1016;48.770;9.154;2023-09-18T14:46:05;27.23;;;1.60;;
2023;SDS011;1016;48.770;9.154;2023-09-18T14:48:32;27.63;;;2.13;;
2023;SDS011;1016;48.770;9.154;2023-09-18T14:51:01;28.00;;;1.87;;
2023;SDS011;1016;48.770;9.154;2023-09-18T14:53:27;29.73;;;2.20;;
2023;SDS011;1016;48.770;9.154;2023-09-18T14:55:57;27.07;;;1.70;;
2023;SDS011;1016;48.770;9.154;2023-09-18T14:58:24;28.77;;;1.53;;
2023;SDS011;1016;48.770;9.154;2023-09-18T15:00:50;27.80;;;1.93;;
2023;SDS011;1016;48.770;9.154;2023-09-18T15:03:16;27.47;;;2.10;;
2023;SDS011;1016;48.770;9.154;2023-09-18T15:05:44;28.57;;;2.20;;
2023;SDS011;1016;48.770;9.154;2023-09-18T15:08:10;27.17;;;1.70;;
2023;SDS011;1016;48.770;9.154;2023-09-18T15:10:40;30.17;;;1.90;;
2023;SDS011;1016;48.770;9.154;2023-09-18T15:13:06;27.53;;;1.67;;
2023;SDS011;1016;48.770;9.154;2023-09-18T15:15:31;26.40;;;1.40;;
2023;SDS011;1016;48.770;9.154;2023-09-18T15:17:57;27.40;;;1.50;;
2023;SDS011;1016;48.770;9.154;2023-09-18T15:20:23;27.60;;;1.83;;
2023;SDS011;1016;48.770;9.154;2023-09-18T15:22:50;28.00;;;1.77;;
2023;SDS011;1016;48.770;9.154;2023-09-18T15:25:27;27.80;;;1.93;;
2023;SDS011;1016;48.770;9.154;2023-09-18T15:27:53;26.70;;;1.80;;
2023;SDS011;1016;48.770;9.154;2023-09-18T15:30:19;27.10;;;2.07;;
2023;SDS011;1016;48.770;9.154;2023-09-18T15:32:52;28.07;;;1.57;;
2023;SDS011;1016;48.770;9.154;2023-09-18T15:35:34;27.13;;;1.90;;